Royalty, Texas
Current Conditions -  °F | °C
As of 8:53 AM on Tuesday 21 Oct 2014 (Local Time) from KFST Reporting Station
Overcast Overcast  
Wind Chill: 62°   Ceiling: 2200
Heat Index: 62°   Visibility: 10mi
Dew Point: 61°   Wind: 6mph
Humidity: 96%   Direction: 110°ESE
Pressure: 30.1"   Gusts: NA
Location:  31.37°N, 102.87°W
Report Text: KFST 211353Z AUTO 11005KT 10SM OVC022 17/16 A3010 RMK AO2 LTG DSNT SW SLP160 T01670161
Loading
Personal Weather Stations






























Interactive Weather Map
Tropical Storm Tracking
New forecast layout! Learn more

10-Day Weather Forecast

Advertisements
Track Severe Weather on mobile